Time;durP1;ratioP1;P1;durP2;ratioP2;P2;SDS_P1;SDS_P2;PMS_P1;PMS_P2;Temp;Humidity;BMP_temperature;BMP_pressure;BME280_temperature;BME280_humidity;BME280_pressure;Samples;Min_cycle;Max_cycle;Signal;HPM_P1;HPM_P2
2022/07/31 00:01:43;;;;;;;8.18;4.00;;;18.20;99.90;;;;;;4944480;29;20134;-44
2022/07/31 00:04:16;;;;;;;7.50;3.95;;;18.20;99.90;;;;;;4944941;29;20051;-44
2022/07/31 00:06:43;;;;;;;8.35;4.32;;;18.20;99.90;;;;;;4945349;29;20051;-45
2022/07/31 00:09:14;;;;;;;6.45;4.60;;;18.10;99.90;;;;;;4958427;28;20051;-45
2022/07/31 00:11:41;;;;;;;5.65;4.57;;;18.10;99.90;;;;;;4916460;29;20135;-45
2022/07/31 00:14:07;;;;;;;5.55;4.55;;;18.10;99.90;;;;;;4942623;28;20051;-47
2022/07/31 00:16:33;;;;;;;6.50;4.45;;;18.10;99.90;;;;;;4943324;28;20404;-45
2022/07/31 00:18:58;;;;;;;8.13;4.57;;;18.10;99.90;;;;;;4930448;28;20086;-45
2022/07/31 00:21:30;;;;;;;7.53;4.70;;;18.10;99.90;;;;;;4951620;28;20102;-45
2022/07/31 00:23:55;;;;;;;6.10;4.47;;;18.10;99.90;;;;;;4950265;28;20174;-48
2022/07/31 00:26:30;;;;;;;8.98;4.25;;;18.10;99.90;;;;;;4946722;28;20517;-44
2022/07/31 00:28:56;;;;;;;7.05;5.20;;;18.10;99.90;;;;;;4957355;28;20047;-45
2022/07/31 00:31:23;;;;;;;7.25;4.97;;;18.10;99.90;;;;;;4909071;29;20063;-46
2022/07/31 00:33:48;;;;;;;7.57;5.53;;;18.10;99.90;;;;;;4944456;29;20439;-44
2022/07/31 00:36:14;;;;;;;8.60;5.30;;;18.10;99.90;;;;;;4945729;29;20051;-47
2022/07/31 00:38:40;;;;;;;5.63;5.03;;;18.20;99.90;;;;;;4945496;29;20047;-46
2022/07/31 00:41:15;;;;;;;6.13;4.70;;;18.20;99.90;;;;;;4958860;28;20074;-47
2022/07/31 00:43:46;;;;;;;8.52;5.50;;;18.20;99.90;;;;;;4958204;28;20097;-46
2022/07/31 00:46:11;;;;;;;6.85;5.10;;;18.20;99.90;;;;;;4958416;28;20050;-48
2022/07/31 00:48:37;;;;;;;7.38;5.30;;;18.20;99.90;;;;;;4955768;28;20407;-49
2022/07/31 00:51:03;;;;;;;7.15;4.90;;;18.20;99.90;;;;;;4948364;28;20808;-47
2022/07/31 00:53:28;;;;;;;8.43;5.22;;;18.20;99.90;;;;;;4961898;28;20043;-50
2022/07/31 00:55:56;;;;;;;5.25;4.32;;;18.10;99.90;;;;;;4955369;28;20066;-48
2022/07/31 00:58:22;;;;;;;5.05;4.32;;;18.10;99.90;;;;;;4945554;28;20066;-48
2022/07/31 01:00:48;;;;;;;7.95;4.90;;;18.20;99.90;;;;;;4958834;28;20490;-48
2022/07/31 01:03:14;;;;;;;7.00;4.50;;;18.20;99.90;;;;;;4964863;28;20055;-45
2022/07/31 01:05:45;;;;;;;6.50;4.50;;;18.20;99.90;;;;;;4964214;28;20051;-43
2022/07/31 01:08:11;;;;;;;5.93;4.15;;;18.20;99.90;;;;;;4963608;28;20054;-45
2022/07/31 01:10:55;;;;;;;7.55;4.60;;;18.20;99.90;;;;;;4963975;28;20039;-44
2022/07/31 01:13:36;;;;;;;6.70;4.47;;;18.20;99.90;;;;;;4954019;28;20059;-45
2022/07/31 01:16:03;;;;;;;7.80;4.90;;;18.10;99.90;;;;;;4948353;28;20047;-44
2022/07/31 01:18:31;;;;;;;6.45;4.45;;;18.10;99.90;;;;;;4947875;29;20538;-44
2022/07/31 01:21:12;;;;;;;6.88;4.85;;;18.10;99.90;;;;;;4947247;29;20059;-45
2022/07/31 01:23:49;;;;;;;6.85;4.95;;;18.10;99.90;;;;;;4955618;28;20121;-46
2022/07/31 01:27:04;;;;;;;6.28;4.57;;;18.10;99.90;;;;;;4931780;29;20047;-47
2022/07/31 01:29:39;;;;;;;7.88;4.80;;;18.10;99.90;;;;;;4938784;29;20145;-46
2022/07/31 01:32:12;;;;;;;10.63;4.55;;;18.10;99.90;;;;;;4940331;29;20562;-46
2022/07/31 01:35:06;;;;;;;7.00;5.18;;;18.10;99.90;;;;;;4929200;29;20460;-46
2022/07/31 01:37:55;;;;;;;6.45;4.72;;;18.10;99.90;;;;;;4940160;28;20074;-46
2022/07/31 01:40:29;;;;;;;6.68;5.00;;;18.10;99.90;;;;;;4958339;28;20139;-45
2022/07/31 01:43:00;;;;;;;8.13;4.80;;;18.00;99.90;;;;;;4949768;28;20109;-45
2022/07/31 01:45:29;;;;;;;6.90;5.25;;;18.00;99.90;;;;;;4938629;29;20099;-45
2022/07/31 01:47:56;;;;;;;6.70;5.53;;;18.00;99.90;;;;;;4943919;29;20059;-44
2022/07/31 01:50:24;;;;;;;8.40;4.95;;;18.00;99.90;;;;;;4928484;29;20060;-46
2022/07/31 01:52:51;;;;;;;6.28;4.85;;;17.90;99.90;;;;;;4935178;28;20134;-45
2022/07/31 01:55:18;;;;;;;9.30;4.90;;;17.90;99.90;;;;;;4954966;28;20105;-46
2022/07/31 01:57:46;;;;;;;5.85;4.72;;;17.90;99.90;;;;;;4942014;28;20526;-49
2022/07/31 02:00:18;;;;;;;8.60;5.13;;;17.90;99.90;;;;;;4918137;29;20478;-47
2022/07/31 02:02:46;;;;;;;5.00;4.50;;;17.90;99.90;;;;;;4950931;28;20048;-45
2022/07/31 02:05:12;;;;;;;6.43;5.20;;;17.90;99.90;;;;;;4951323;28;20050;-46
2022/07/31 02:07:41;;;;;;;7.50;5.28;;;18.00;99.90;;;;;;4950810;28;20415;-49
2022/07/31 02:10:09;;;;;;;6.97;4.90;;;17.90;99.90;;;;;;4948717;28;20101;-48
2022/07/31 02:12:36;;;;;;;8.27;5.30;;;17.90;99.90;;;;;;4940364;29;20054;-43
2022/07/31 02:15:07;;;;;;;6.32;5.72;;;17.90;99.90;;;;;;4955285;28;20521;-45
2022/07/31 02:17:37;;;;;;;6.10;5.07;;;18.00;99.90;;;;;;4938212;29;20423;-48
2022/07/31 02:20:06;;;;;;;7.72;5.57;;;18.00;99.90;;;;;;4948043;28;20087;-47
2022/07/31 02:22:33;;;;;;;6.93;5.10;;;18.00;99.90;;;;;;4912072;29;20115;-45
2022/07/31 02:24:59;;;;;;;8.55;5.20;;;17.90;99.90;;;;;;4926860;29;20063;-44
2022/07/31 02:27:27;;;;;;;7.90;5.13;;;17.90;99.90;;;;;;4957739;28;20575;-44
2022/07/31 02:29:56;;;;;;;9.05;5.15;;;17.90;99.90;;;;;;4932223;28;20661;-45
2022/07/31 02:32:22;;;;;;;9.65;5.55;;;17.80;99.90;;;;;;4950600;28;20471;-44
2022/07/31 02:34:49;;;;;;;8.35;6.13;;;17.80;99.90;;;;;;4963941;28;20097;-46
2022/07/31 02:37:16;;;;;;;7.57;5.78;;;17.80;99.90;;;;;;4964781;28;20069;-44
2022/07/31 02:39:42;;;;;;;7.47;5.30;;;17.80;99.90;;;;;;4931010;29;20054;-44
2022/07/31 02:42:09;;;;;;;14.25;6.10;;;17.80;99.90;;;;;;4935035;28;20605;-44
2022/07/31 02:44:37;;;;;;;10.00;6.15;;;17.80;99.90;;;;;;4951457;28;20065;-44
2022/07/31 02:47:05;;;;;;;10.07;6.10;;;17.80;99.90;;;;;;4928474;29;20062;-45
2022/07/31 02:49:34;;;;;;;9.57;5.97;;;17.80;99.90;;;;;;4948859;28;20573;-46
2022/07/31 02:52:00;;;;;;;9.18;5.80;;;17.80;99.90;;;;;;4951073;28;20348;-45
2022/07/31 02:54:27;;;;;;;6.03;5.43;;;17.70;99.90;;;;;;4964227;28;20062;-47
2022/07/31 02:56:54;;;;;;;10.77;5.80;;;17.70;99.90;;;;;;4958035;28;20053;-45
2022/07/31 02:59:21;;;;;;;7.43;6.13;;;17.70;99.90;;;;;;4950964;28;20513;-46
2022/07/31 03:01:46;;;;;;;9.07;6.28;;;17.70;99.90;;;;;;4961933;28;20109;-46
2022/07/31 03:04:18;;;;;;;6.57;5.97;;;17.70;99.90;;;;;;4923951;29;20142;-46
2022/07/31 03:06:43;;;;;;;8.00;6.40;;;17.70;99.90;;;;;;4945704;29;20577;-44
2022/07/31 03:09:09;;;;;;;8.98;6.07;;;17.70;99.90;;;;;;4949106;28;20047;-46
2022/07/31 03:11:38;;;;;;;7.50;6.60;;;17.70;99.90;;;;;;4963201;28;20057;-46
2022/07/31 03:14:06;;;;;;;7.93;7.13;;;17.70;99.90;;;;;;4927351;29;20062;-46
2022/07/31 03:16:33;;;;;;;8.13;6.57;;;17.60;99.90;;;;;;4926886;29;20167;-46
2022/07/31 03:19:00;;;;;;;8.35;6.32;;;17.60;99.90;;;;;;4910097;29;20162;-47
2022/07/31 03:21:27;;;;;;;6.70;6.05;;;17.60;99.90;;;;;;4927249;29;20657;-48
2022/07/31 03:23:53;;;;;;;7.68;6.90;;;17.60;99.90;;;;;;4909842;29;20064;-44
2022/07/31 03:26:19;;;;;;;7.60;6.78;;;17.60;99.90;;;;;;4927579;29;20407;-45
2022/07/31 03:28:45;;;;;;;7.72;7.03;;;17.50;99.90;;;;;;4909475;29;20059;-45
2022/07/31 03:31:11;;;;;;;7.72;6.63;;;17.60;99.90;;;;;;4928066;29;20079;-46
2022/07/31 03:33:38;;;;;;;7.72;6.97;;;17.60;99.90;;;;;;4940577;28;20873;-45
2022/07/31 03:36:04;;;;;;;10.35;6.53;;;17.60;99.90;;;;;;4945206;28;20106;-47
2022/07/31 03:38:30;;;;;;;7.22;6.50;;;17.60;99.90;;;;;;4948345;28;20051;-48
2022/07/31 03:40:56;;;;;;;7.55;6.38;;;17.60;99.90;;;;;;4961055;28;20047;-44
2022/07/31 03:43:22;;;;;;;8.45;6.82;;;17.60;99.90;;;;;;4961291;28;20055;-45
2022/07/31 03:45:50;;;;;;;7.90;7.10;;;17.70;99.90;;;;;;4940059;29;20043;-44
2022/07/31 03:48:16;;;;;;;8.00;6.85;;;17.60;99.90;;;;;;4931864;29;20526;-44
2022/07/31 03:50:42;;;;;;;10.00;7.30;;;17.70;99.90;;;;;;4959299;28;20078;-46
2022/07/31 03:53:09;;;;;;;7.22;6.43;;;17.70;99.90;;;;;;4944210;29;20684;-45
2022/07/31 03:55:38;;;;;;;8.27;7.15;;;17.70;99.90;;;;;;4934054;29;20083;-43
2022/07/31 03:58:05;;;;;;;10.23;7.00;;;17.80;99.90;;;;;;4927859;29;20067;-45
2022/07/31 04:00:33;;;;;;;8.32;6.85;;;17.80;99.90;;;;;;4958382;28;20046;-44
2022/07/31 04:03:08;;;;;;;7.57;6.78;;;17.80;99.90;;;;;;4963030;28;20453;-45
2022/07/31 04:05:40;;;;;;;7.55;6.85;;;17.80;99.90;;;;;;4945842;28;20058;-49
2022/07/31 04:08:07;;;;;;;10.73;7.25;;;17.90;99.90;;;;;;4935004;29;20055;-45
2022/07/31 04:10:34;;;;;;;12.57;8.00;;;17.90;99.90;;;;;;4950906;28;20046;-47
2022/07/31 04:13:04;;;;;;;7.93;7.13;;;17.90;99.90;;;;;;4958563;28;20043;-46
2022/07/31 04:15:30;;;;;;;7.95;7.20;;;17.80;99.90;;;;;;4948624;28;20055;-46
2022/07/31 04:17:56;;;;;;;10.93;8.05;;;17.80;99.90;;;;;;4938115;29;20051;-44
2022/07/31 04:20:22;;;;;;;9.70;7.38;;;17.90;99.90;;;;;;4958784;28;20525;-45
2022/07/31 04:22:48;;;;;;;9.43;7.93;;;17.90;99.90;;;;;;4944193;29;20436;-46
2022/07/31 04:25:14;;;;;;;8.73;7.28;;;17.80;99.90;;;;;;4939600;28;20054;-47
2022/07/31 04:27:40;;;;;;;8.85;7.95;;;17.80;99.90;;;;;;4957526;28;20480;-46
2022/07/31 04:30:07;;;;;;;8.40;7.07;;;17.80;99.90;;;;;;4955732;28;20126;-48
2022/07/31 04:32:35;;;;;;;9.48;7.35;;;17.80;99.90;;;;;;4915086;29;20507;-44
2022/07/31 04:35:02;;;;;;;7.57;6.85;;;17.80;99.90;;;;;;4925617;29;20056;-46
2022/07/31 04:37:28;;;;;;;7.72;6.90;;;17.90;99.90;;;;;;4929876;28;20522;-45
2022/07/31 04:39:54;;;;;;;8.77;7.88;;;17.90;99.90;;;;;;4948568;28;20049;-45
2022/07/31 04:42:23;;;;;;;8.05;7.25;;;17.90;99.90;;;;;;4964778;28;20190;-45
2022/07/31 04:44:49;;;;;;;9.07;6.93;;;17.90;99.90;;;;;;4960408;28;20461;-45
2022/07/31 04:51:47;;;;;;;9.43;7.00;;;17.90;99.90;;;;;;4930559;29;20162;-46
2022/07/31 04:54:14;;;;;;;14.05;7.38;;;18.00;99.90;;;;;;4915741;29;20142;-50
2022/07/31 04:56:42;;;;;;;8.13;7.32;;;18.10;99.90;;;;;;4909765;29;20044;-44
2022/07/31 04:59:16;;;;;;;7.72;6.95;;;18.20;99.90;;;;;;4928981;29;20798;-46
2022/07/31 05:01:43;;;;;;;9.07;7.05;;;18.30;99.90;;;;;;4909610;29;20052;-45
2022/07/31 05:04:09;;;;;;;9.18;7.30;;;18.40;99.90;;;;;;4915708;29;20055;-46
2022/07/31 05:06:48;;;;;;;7.63;6.90;;;18.50;99.90;;;;;;4920004;29;20135;-46
2022/07/31 05:09:18;;;;;;;9.27;7.50;;;18.60;99.90;;;;;;4915637;29;20052;-44
2022/07/31 05:11:44;;;;;;;7.82;7.13;;;18.70;99.90;;;;;;4927859;29;20541;-43
2022/07/31 05:14:12;;;;;;;7.93;7.15;;;18.80;99.90;;;;;;4927720;29;20066;-44
2022/07/31 05:16:39;;;;;;;9.80;6.85;;;18.90;99.90;;;;;;4926985;29;20688;-46
2022/07/31 05:19:05;;;;;;;10.13;7.20;;;19.10;99.90;;;;;;4915944;29;20384;-45
2022/07/31 05:21:31;;;;;;;9.50;7.55;;;19.10;99.90;;;;;;4925286;29;20070;-47
2022/07/31 05:23:58;;;;;;;8.10;7.40;;;19.10;99.90;;;;;;4928698;29;20403;-44
2022/07/31 05:26:24;;;;;;;12.20;7.50;;;19.00;99.90;;;;;;4914921;29;20075;-45
2022/07/31 05:28:52;;;;;;;8.35;7.40;;;18.90;99.90;;;;;;4907924;29;20638;-48
2022/07/31 05:31:19;;;;;;;9.38;7.43;;;18.90;99.90;;;;;;4911612;29;20107;-43
2022/07/31 05:33:46;;;;;;;9.60;7.53;;;18.80;99.90;;;;;;4908556;29;20048;-46
2022/07/31 05:36:16;;;;;;;8.77;7.28;;;18.70;99.90;;;;;;4908673;29;20056;-45
2022/07/31 05:38:42;;;;;;;8.50;6.88;;;18.70;99.90;;;;;;4908136;29;20071;-44
2022/07/31 05:41:09;;;;;;;8.68;7.43;;;18.60;99.90;;;;;;4908473;29;20052;-45
2022/07/31 05:43:35;;;;;;;8.85;7.03;;;18.60;99.90;;;;;;4925760;29;20499;-47
2022/07/31 05:46:02;;;;;;;10.35;7.72;;;18.60;99.90;;;;;;4928137;29;20057;-44
2022/07/31 05:48:28;;;;;;;8.30;7.53;;;18.60;99.90;;;;;;4921459;29;20051;-47
2022/07/31 05:50:54;;;;;;;9.55;7.80;;;18.60;99.90;;;;;;4892719;29;20052;-45
2022/07/31 05:53:25;;;;;;;9.00;7.75;;;18.60;99.90;;;;;;4935726;29;20070;-45
2022/07/31 05:55:56;;;;;;;8.68;7.78;;;18.60;99.90;;;;;;4927082;29;20162;-46
2022/07/31 05:58:22;;;;;;;8.32;7.45;;;18.60;99.90;;;;;;4927107;29;20054;-44
2022/07/31 06:00:49;;;;;;;8.20;7.45;;;18.70;99.90;;;;;;4927191;29;20078;-45
2022/07/31 06:03:15;;;;;;;9.13;8.23;;;18.70;99.90;;;;;;4920003;29;20418;-46
2022/07/31 06:05:41;;;;;;;11.95;8.05;;;18.80;99.90;;;;;;4926695;29;20167;-45
2022/07/31 06:08:08;;;;;;;8.50;7.63;;;18.80;99.90;;;;;;4909139;29;20048;-50
2022/07/31 06:10:36;;;;;;;10.52;8.55;;;18.90;99.90;;;;;;4931039;29;20051;-45
2022/07/31 06:13:05;;;;;;;8.55;7.85;;;19.00;99.90;;;;;;4945965;29;20062;-45
2022/07/31 06:15:31;;;;;;;10.02;8.57;;;19.00;99.90;;;;;;4926137;29;20052;-46
2022/07/31 06:17:58;;;;;;;8.80;7.88;;;19.10;99.90;;;;;;4907318;29;20047;-46
2022/07/31 06:20:25;;;;;;;11.38;9.00;;;19.20;99.90;;;;;;4941777;29;20205;-47
2022/07/31 06:22:51;;;;;;;9.63;8.73;;;19.20;99.90;;;;;;4945272;29;20058;-45
2022/07/31 06:25:17;;;;;;;12.65;8.63;;;19.30;99.90;;;;;;4945533;29;20055;-46
2022/07/31 06:27:42;;;;;;;10.23;8.93;;;19.40;99.90;;;;;;4945251;29;20075;-45
2022/07/31 06:30:09;;;;;;;10.60;9.32;;;19.60;99.90;;;;;;4946118;29;20550;-46
2022/07/31 06:32:40;;;;;;;12.82;10.10;;;19.60;99.90;;;;;;4945597;29;20097;-46
2022/07/31 06:35:07;;;;;;;12.98;10.77;;;19.70;99.90;;;;;;4945440;29;20051;-44
2022/07/31 06:37:32;;;;;;;11.10;9.73;;;19.80;99.90;;;;;;4944829;29;20593;-45
2022/07/31 06:39:58;;;;;;;12.30;10.23;;;19.80;99.90;;;;;;4943082;29;20161;-44
2022/07/31 06:42:25;;;;;;;12.27;9.50;;;19.90;99.90;;;;;;4925453;29;20043;-47
2022/07/31 06:44:51;;;;;;;11.10;9.90;;;19.90;99.90;;;;;;4940413;29;20075;-45
2022/07/31 06:47:19;;;;;;;13.82;10.05;;;20.00;99.90;;;;;;4926628;29;20623;-46
2022/07/31 06:49:45;;;;;;;10.82;9.68;;;20.00;99.90;;;;;;4928437;29;20134;-45
2022/07/31 06:52:11;;;;;;;12.10;10.10;;;20.10;99.90;;;;;;4952673;28;20062;-46
2022/07/31 06:54:46;;;;;;;11.43;9.55;;;20.20;99.90;;;;;;4963914;28;20051;-46
2022/07/31 06:57:12;;;;;;;12.70;9.98;;;20.30;99.90;;;;;;4954019;28;20062;-45
2022/07/31 06:59:39;;;;;;;13.43;9.73;;;20.30;99.90;;;;;;4944596;29;20105;-47
2022/07/31 07:02:04;;;;;;;10.02;8.90;;;20.50;99.90;;;;;;4935719;29;20057;-46
2022/07/31 07:04:30;;;;;;;13.18;9.48;;;20.60;99.90;;;;;;4957387;28;20063;-46
2022/07/31 07:06:56;;;;;;;12.52;9.30;;;20.70;99.90;;;;;;4945549;29;20043;-48
2022/07/31 07:09:22;;;;;;;8.95;8.05;;;20.80;99.90;;;;;;4935484;29;20195;-47
2022/07/31 07:11:47;;;;;;;14.82;9.50;;;20.80;99.90;;;;;;4945675;28;20058;-47
2022/07/31 07:14:13;;;;;;;11.10;9.02;;;20.80;99.90;;;;;;4944024;29;20062;-45
2022/07/31 07:16:39;;;;;;;10.82;9.55;;;20.70;99.90;;;;;;4931929;28;20523;-45
2022/07/31 07:19:05;;;;;;;12.18;10.23;;;20.60;99.90;;;;;;4963616;28;20085;-47
2022/07/31 07:21:31;;;;;;;12.13;10.18;;;20.60;99.90;;;;;;4963457;28;20664;-46
2022/07/31 07:23:57;;;;;;;12.55;10.15;;;20.60;99.90;;;;;;4948821;28;20042;-44
2022/07/31 07:26:23;;;;;;;11.90;10.55;;;20.60;99.90;;;;;;4964111;28;20061;-45
2022/07/31 07:28:49;;;;;;;14.07;10.73;;;20.50;99.90;;;;;;4948188;28;20403;-45
2022/07/31 07:31:14;;;;;;;11.70;10.35;;;20.40;99.90;;;;;;4934864;29;20090;-47
2022/07/31 07:33:40;;;;;;;13.85;10.98;;;20.40;99.90;;;;;;4927018;29;20126;-47
2022/07/31 07:36:11;;;;;;;14.63;10.45;;;20.40;99.90;;;;;;4935711;29;20103;-49
2022/07/31 07:38:36;;;;;;;13.65;11.02;;;20.50;99.90;;;;;;4944646;29;20047;-47
2022/07/31 07:41:02;;;;;;;12.35;10.65;;;20.50;99.90;;;;;;4957606;28;20130;-44
2022/07/31 07:43:28;;;;;;;12.10;10.18;;;20.40;99.90;;;;;;4959465;28;20407;-44
2022/07/31 07:45:54;;;;;;;16.25;10.35;;;20.50;99.90;;;;;;4953011;28;20055;-44
2022/07/31 07:48:19;;;;;;;17.02;10.45;;;20.60;99.90;;;;;;4924766;29;20049;-46
2022/07/31 07:50:47;;;;;;;12.25;10.40;;;20.70;99.90;;;;;;4948695;28;20117;-46
2022/07/31 07:53:12;;;;;;;15.40;10.48;;;20.80;99.90;;;;;;4962733;28;20059;-45
2022/07/31 07:55:38;;;;;;;13.82;10.35;;;20.90;99.90;;;;;;4946590;28;20586;-46
2022/07/31 07:58:04;;;;;;;13.80;10.85;;;21.00;99.90;;;;;;4943053;28;20098;-46
2022/07/31 08:00:30;;;;;;;13.82;10.77;;;21.00;99.90;;;;;;4942945;29;20047;-46
2022/07/31 08:02:56;;;;;;;12.95;10.88;;;21.10;99.90;;;;;;4943616;29;20062;-45
2022/07/31 08:05:21;;;;;;;14.95;10.95;;;21.10;99.90;;;;;;4945183;28;20458;-45
2022/07/31 08:07:47;;;;;;;17.50;11.38;;;21.10;99.90;;;;;;4946135;28;20059;-45
2022/07/31 08:10:17;;;;;;;16.75;11.63;;;21.00;99.90;;;;;;4941772;29;20043;-47
2022/07/31 08:12:44;;;;;;;14.50;12.40;;;21.00;99.90;;;;;;4922424;29;20553;-43
2022/07/31 08:15:10;;;;;;;18.33;13.73;;;20.90;99.90;;;;;;4929403;28;20073;-45
2022/07/31 08:17:36;;;;;;;15.75;13.85;;;20.80;99.90;;;;;;4948757;28;20158;-44
2022/07/31 08:20:03;;;;;;;18.55;13.93;;;20.70;99.90;;;;;;4938498;28;20559;-45
2022/07/31 08:22:28;;;;;;;15.27;13.15;;;20.60;99.90;;;;;;4951980;28;20422;-47
2022/07/31 08:24:55;;;;;;;14.98;13.38;;;20.60;99.90;;;;;;4946192;29;20051;-45
2022/07/31 08:27:29;;;;;;;16.65;13.50;;;20.40;99.90;;;;;;4946787;29;20050;-46
2022/07/31 08:30:00;;;;;;;18.65;13.18;;;20.30;99.90;;;;;;4947993;28;20047;-48
2022/07/31 08:32:26;;;;;;;14.38;12.65;;;20.20;99.90;;;;;;4947032;29;20084;-45
2022/07/31 08:34:54;;;;;;;17.92;14.00;;;20.20;99.90;;;;;;4946324;29;20047;-45
2022/07/31 08:37:20;;;;;;;16.25;14.60;;;20.10;99.90;;;;;;4946733;29;20098;-46
2022/07/31 08:39:47;;;;;;;18.50;15.77;;;20.10;99.90;;;;;;4963313;28;20076;-46
2022/07/31 08:42:14;;;;;;;19.92;15.02;;;20.00;99.90;;;;;;4965575;28;20054;-46
2022/07/31 08:44:45;;;;;;;17.17;15.30;;;20.00;99.90;;;;;;4938400;29;20051;-45
2022/07/31 08:47:14;;;;;;;18.60;15.48;;;19.90;99.90;;;;;;4947142;29;20062;-43
2022/07/31 08:49:43;;;;;;;18.05;16.17;;;19.90;99.90;;;;;;4945601;29;20149;-45
2022/07/31 08:52:15;;;;;;;19.63;16.08;;;19.80;99.90;;;;;;4949868;28;20063;-48
2022/07/31 08:54:45;;;;;;;20.60;16.20;;;19.70;99.90;;;;;;4945452;29;20067;-51
2022/07/31 08:57:11;;;;;;;18.85;17.02;;;19.70;99.90;;;;;;4927808;29;20514;-45
2022/07/31 08:59:40;;;;;;;20.75;17.95;;;19.60;99.90;;;;;;4946099;28;20154;-46
2022/07/31 09:02:06;;;;;;;20.67;18.27;;;19.70;99.90;;;;;;4946446;29;20519;-46
2022/07/31 09:04:31;;;;;;;21.08;17.65;;;19.60;99.90;;;;;;4946666;29;20139;-45
2022/07/31 09:06:59;;;;;;;18.63;16.83;;;19.70;99.90;;;;;;4945464;29;20058;-44
2022/07/31 09:09:26;;;;;;;22.10;17.45;;;19.60;99.90;;;;;;4940684;29;20055;-45
2022/07/31 09:11:54;;;;;;;19.42;17.55;;;19.80;99.90;;;;;;4942830;28;20535;-44
2022/07/31 09:14:34;;;;;;;21.25;16.98;;;19.70;99.90;;;;;;4965398;28;20129;-47
2022/07/31 09:17:02;;;;;;;20.55;18.27;;;19.90;99.90;;;;;;4943998;28;20056;-45
2022/07/31 09:19:37;;;;;;;18.33;16.23;;;19.90;99.90;;;;;;4936257;29;20058;-43
2022/07/31 09:22:02;;;;;;;20.23;18.20;;;19.90;99.90;;;;;;4945765;29;20054;-45
2022/07/31 09:24:31;;;;;;;21.42;19.17;;;19.80;99.90;;;;;;4921136;29;20054;-46
2022/07/31 09:27:07;;;;;;;19.15;17.13;;;19.80;99.90;;;;;;4940503;29;20042;-46
2022/07/31 09:29:41;;;;;;;21.77;18.67;;;19.70;99.90;;;;;;4946235;28;20130;-45
2022/07/31 09:32:13;;;;;;;22.73;18.20;;;19.70;99.90;;;;;;4942895;28;20050;-47
2022/07/31 09:34:39;;;;;;;24.33;20.98;;;19.60;99.90;;;;;;4945320;29;20529;-46
2022/07/31 09:37:15;;;;;;;23.63;19.38;;;19.60;99.90;;;;;;4944563;29;20612;-47
2022/07/31 09:39:48;;;;;;;21.55;19.13;;;19.60;99.90;;;;;;4961914;28;20434;-45
2022/07/31 09:42:14;;;;;;;22.60;20.20;;;19.60;99.90;;;;;;4964243;28;20117;-45
2022/07/31 09:44:41;;;;;;;21.00;18.83;;;19.60;99.90;;;;;;4947143;28;20050;-43
2022/07/31 09:47:22;;;;;;;22.98;18.38;;;19.60;99.90;;;;;;4965199;28;20053;-45
2022/07/31 09:50:03;;;;;;;21.88;19.38;;;19.60;99.90;;;;;;4930213;28;20463;-43
2022/07/31 09:52:31;;;;;;;22.05;19.20;;;19.60;99.90;;;;;;4939435;29;20567;-45
2022/07/31 09:55:03;;;;;;;21.50;19.20;;;19.50;99.90;;;;;;4945243;29;20495;-47
2022/07/31 09:57:29;;;;;;;21.80;19.50;;;19.50;99.90;;;;;;4938315;29;20047;-45
2022/07/31 09:59:55;;;;;;;23.45;20.63;;;19.50;99.90;;;;;;4929198;29;20059;-46
2022/07/31 10:02:24;;;;;;;24.00;21.10;;;19.50;99.90;;;;;;4906343;29;20079;-44
2022/07/31 10:04:52;;;;;;;26.15;22.60;;;19.60;99.90;;;;;;4913327;29;20058;-46
2022/07/31 10:07:18;;;;;;;25.52;22.92;;;19.70;99.90;;;;;;4926262;29;20059;-45
2022/07/31 10:09:44;;;;;;;24.77;22.40;;;19.80;99.90;;;;;;4926016;29;20048;-48
2022/07/31 10:12:13;;;;;;;23.40;21.00;;;19.90;99.90;;;;;;4911244;29;20055;-45
2022/07/31 10:14:42;;;;;;;24.33;22.02;;;19.90;99.90;;;;;;4928427;29;20055;-48
2022/07/31 10:17:10;;;;;;;23.38;20.88;;;20.10;99.90;;;;;;4913671;29;20499;-50
2022/07/31 10:19:40;;;;;;;24.73;21.83;;;20.20;99.90;;;;;;4920043;29;20060;-49
2022/07/31 10:22:08;;;;;;;24.40;21.83;;;20.20;99.90;;;;;;4908488;29;20056;-43
2022/07/31 10:24:46;;;;;;;23.27;21.02;;;20.20;99.90;;;;;;4921955;29;20054;-45
2022/07/31 10:27:14;;;;;;;24.77;22.48;;;20.10;99.90;;;;;;4927560;29;20066;-44
2022/07/31 10:29:40;;;;;;;25.00;22.45;;;20.00;99.90;;;;;;4907424;29;20056;-46
2022/07/31 10:32:07;;;;;;;27.10;23.92;;;19.90;99.90;;;;;;4925534;29;20182;-45
2022/07/31 10:34:34;;;;;;;26.67;23.85;;;20.00;99.90;;;;;;4908100;29;20102;-45
2022/07/31 10:37:18;;;;;;;26.15;23.65;;;19.90;99.90;;;;;;4922830;29;20051;-46
2022/07/31 10:40:07;;;;;;;27.30;24.58;;;19.90;99.90;;;;;;4941416;29;20054;-44
2022/07/31 10:42:54;;;;;;;26.52;23.83;;;19.80;99.90;;;;;;4904237;29;20048;-45
2022/07/31 10:45:21;;;;;;;30.08;26.13;;;19.90;99.90;;;;;;4937474;28;20062;-44
2022/07/31 10:47:55;;;;;;;34.17;27.25;;;19.90;99.90;;;;;;4925671;29;20059;-46
2022/07/31 10:50:28;;;;;;;31.55;27.52;;;19.90;99.90;;;;;;4892862;29;20313;-47
2022/07/31 10:52:54;;;;;;;;;;;20.00;99.90;;;;;;4930691;29;20425;-45
2022/07/31 10:55:23;;;;;;;30.27;26.42;;;19.90;99.90;;;;;;4945050;29;19926;-44
2022/07/31 10:57:50;;;;;;;31.35;28.05;;;19.80;99.90;;;;;;4921281;29;20051;-46
2022/07/31 11:00:21;;;;;;;32.60;29.00;;;19.70;99.90;;;;;;4938860;29;20074;-47
2022/07/31 11:02:47;;;;;;;33.15;28.60;;;19.80;99.90;;;;;;4921290;29;20333;-45
2022/07/31 11:05:22;;;;;;;35.22;30.13;;;19.60;99.90;;;;;;4914803;29;20054;-44
2022/07/31 11:08:03;;;;;;;33.50;29.63;;;19.50;99.90;;;;;;4925190;29;20082;-45
2022/07/31 11:10:29;;;;;;;34.83;30.75;;;19.50;99.90;;;;;;4919673;29;20060;-47
2022/07/31 11:13:06;;;;;;;34.05;30.42;;;19.60;99.90;;;;;;4909263;29;20118;-45
2022/07/31 11:15:40;;;;;;;34.33;28.58;;;19.50;99.90;;;;;;5145272;27;20892;-46
2022/07/31 11:18:19;;;;;;;33.72;30.27;;;19.50;99.90;;;;;;5138863;27;20055;-47
2022/07/31 11:20:45;;;;;;;32.08;28.77;;;19.40;99.90;;;;;;5136966;27;21678;-48
2022/07/31 11:23:16;;;;;;;36.08;29.20;;;19.50;99.90;;;;;;5136372;27;20512;-45
2022/07/31 11:25:44;;;;;;;33.90;30.20;;;19.50;99.90;;;;;;5138988;27;20085;-44
2022/07/31 11:28:11;;;;;;;34.22;30.42;;;19.40;99.90;;;;;;5139677;27;20072;-45
2022/07/31 11:31:02;;;;;;;34.83;31.13;;;19.40;99.90;;;;;;5139322;27;20082;-48
2022/07/31 11:33:39;;;;;;;34.67;30.98;;;19.40;99.90;;;;;;5141590;27;20043;-46
2022/07/31 11:36:22;;;;;;;35.38;31.73;;;19.40;99.90;;;;;;5137637;27;20117;-49
2022/07/31 11:38:51;;;;;;;33.08;29.52;;;19.40;99.90;;;;;;5138613;27;20195;-48
2022/07/31 11:41:22;;;;;;;32.70;29.42;;;19.50;99.90;;;;;;5138917;27;20138;-49
2022/07/31 11:43:50;;;;;;;34.55;30.73;;;19.60;99.90;;;;;;5139500;27;20050;-45
2022/07/31 11:46:26;;;;;;;33.58;30.17;;;19.50;99.90;;;;;;5138704;27;20043;-44
2022/07/31 11:48:53;;;;;;;36.50;32.53;;;19.50;99.90;;;;;;5138340;27;20039;-42
2022/07/31 11:51:20;;;;;;;37.50;33.38;;;19.60;99.90;;;;;;5116704;27;20488;-45
2022/07/31 11:53:46;;;;;;;38.67;34.50;;;19.50;99.90;;;;;;5137819;27;20084;-46
2022/07/31 11:56:15;;;;;;;41.63;33.90;;;19.50;99.90;;;;;;5137175;27;20047;-47
2022/07/31 11:58:49;;;;;;;36.65;32.83;;;19.50;99.90;;;;;;5090091;28;20132;-45
2022/07/31 12:01:15;;;;;;;37.33;33.47;;;19.40;99.90;;;;;;5136424;27;20054;-43
2022/07/31 12:03:49;;;;;;;35.50;30.90;;;19.40;99.90;;;;;;5138046;27;20087;-43
2022/07/31 12:06:19;;;;;;;32.55;29.38;;;19.40;99.90;;;;;;5139088;27;20039;-46
2022/07/31 12:08:47;;;;;;;33.38;29.80;;;19.40;99.90;;;;;;5136555;27;20485;-47
2022/07/31 12:11:13;;;;;;;30.70;27.40;;;19.30;99.90;;;;;;5138627;27;20397;-46
2022/07/31 12:13:39;;;;;;;27.40;24.48;;;19.40;99.90;;;;;;5138933;27;20078;-45
2022/07/31 12:16:07;;;;;;;26.48;23.65;;;19.50;99.90;;;;;;5137436;27;20275;-46
2022/07/31 12:18:44;;;;;;;21.38;19.20;;;19.50;99.90;;;;;;5137658;27;20389;-46
2022/07/31 12:21:42;;;;;;;17.83;16.08;;;19.60;99.90;;;;;;5136964;27;20522;-45
2022/07/31 12:24:13;;;;;;;14.60;13.10;;;19.50;99.90;;;;;;5053732;28;20098;-46
2022/07/31 12:26:50;;;;;;;14.55;13.13;;;19.70;99.90;;;;;;5042764;28;20163;-45
2022/07/31 12:29:16;;;;;;;15.60;14.10;;;19.80;99.90;;;;;;5039295;28;20090;-47
2022/07/31 12:31:52;;;;;;;16.02;14.35;;;19.80;99.90;;;;;;5040189;28;20080;-46
2022/07/31 12:34:27;;;;;;;16.20;14.30;;;20.10;99.90;;;;;;5039705;28;20057;-48
2022/07/31 12:37:13;;;;;;;13.80;12.40;;;20.10;99.90;;;;;;5029942;28;20044;-47
2022/07/31 12:39:59;;;;;;;15.57;14.23;;;20.40;99.90;;;;;;5034654;28;20449;-46
2022/07/31 12:42:26;;;;;;;14.77;12.77;;;20.30;99.90;;;;;;5033755;28;20699;-45
2022/07/31 12:44:53;;;;;;;15.77;14.07;;;20.30;99.90;;;;;;5033134;28;20483;-45
2022/07/31 12:47:30;;;;;;;17.85;14.23;;;20.20;99.90;;;;;;5031616;28;20053;-46
2022/07/31 12:49:57;;;;;;;15.13;13.57;;;20.20;99.90;;;;;;5031509;28;20095;-45
2022/07/31 12:52:26;;;;;;;16.50;13.57;;;20.10;99.90;;;;;;5039283;28;20160;-44